createdAt,value
2022-09-29T00:00:36.308Z,10.53
2022-09-29T00:05:38.099Z,10.53
2022-09-29T00:10:41.328Z,10.61
2022-09-29T00:15:43.748Z,10.69
2022-09-29T00:20:45.522Z,10.73
2022-09-29T00:25:47.295Z,10.71
2022-09-29T00:30:49.130Z,10.71
2022-09-29T00:36:03.358Z,10.71
2022-09-29T00:41:06.202Z,10.73
2022-09-29T00:46:08.204Z,10.75
2022-09-29T00:51:10.282Z,10.75
2022-09-29T00:56:15.298Z,10.75
2022-09-29T01:01:17.094Z,10.75
2022-09-29T01:06:23.628Z,10.77
2022-09-29T01:11:26.052Z,10.77
2022-09-29T01:16:27.890Z,10.77
2022-09-29T01:21:57.880Z,10.76
2022-09-29T01:27:15.180Z,10.75
2022-09-29T01:32:39.197Z,10.77
2022-09-29T01:37:57.348Z,10.76
2022-09-29T01:43:14.201Z,10.76
2022-09-29T01:48:22.530Z,10.77
2022-09-29T01:53:48.062Z,10.77
2022-09-29T01:58:57.945Z,10.79
2022-09-29T02:04:05.659Z,10.81
2022-09-29T02:09:16.746Z,10.83
2022-09-29T02:14:41.758Z,10.85
2022-09-29T02:19:44.136Z,10.88
2022-09-29T02:24:46.736Z,10.89
2022-09-29T02:29:49.563Z,10.89
2022-09-29T02:34:53.560Z,10.87
2022-09-29T02:40:16.019Z,10.87
2022-09-29T02:45:46.936Z,10.86
2022-09-29T02:50:59.445Z,10.84
2022-09-29T02:56:27.193Z,10.83
2022-09-29T03:01:33.322Z,10.85
2022-09-29T03:06:35.164Z,10.85
2022-09-29T03:11:37.570Z,10.84
2022-09-29T03:16:39.624Z,10.86
2022-09-29T03:21:41.571Z,10.85
2022-09-29T03:26:43.359Z,10.85
2022-09-29T03:31:45.520Z,10.85
2022-09-29T03:36:47.439Z,10.85
2022-09-29T03:41:49.714Z,10.85
2022-09-29T03:46:51.486Z,10.84
2022-09-29T03:51:53.268Z,10.85
2022-09-29T03:56:54.969Z,10.87
2022-09-29T04:01:59.108Z,10.89
2022-09-29T04:07:00.937Z,10.92
2022-09-29T04:12:02.917Z,10.95
2022-09-29T04:17:05.162Z,10.97
2022-09-29T04:22:06.885Z,10.97
2022-09-29T04:27:08.698Z,10.97
2022-09-29T04:32:11.045Z,10.98
2022-09-29T04:37:12.922Z,11.00
2022-09-29T04:42:14.695Z,10.98
2022-09-29T04:47:17.108Z,10.96
2022-09-29T04:52:18.845Z,10.95
2022-09-29T04:57:20.763Z,10.93
2022-09-29T05:02:40.283Z,10.93
2022-09-29T05:07:42.454Z,10.93
2022-09-29T05:12:48.824Z,10.95
2022-09-29T05:17:50.575Z,10.98
2022-09-29T05:22:52.390Z,11.00
2022-09-29T05:27:54.192Z,11.04
2022-09-29T05:32:59.002Z,11.09
2022-09-29T05:38:01.851Z,11.17
2022-09-29T05:43:04.013Z,11.27
2022-09-29T05:48:05.693Z,11.37
2022-09-29T05:53:08.457Z,11.45
2022-09-29T05:58:10.218Z,11.53
2022-09-29T06:03:11.922Z,11.59
2022-09-29T06:08:13.908Z,11.64
2022-09-29T06:13:15.618Z,11.72
2022-09-29T06:18:17.440Z,11.80
2022-09-29T06:23:19.126Z,11.93
2022-09-29T06:28:20.946Z,12.13
2022-09-29T06:33:23.197Z,12.36
2022-09-29T06:38:25.412Z,12.71
2022-09-29T06:43:27.091Z,13.08
2022-09-29T06:48:35.491Z,13.38
2022-09-29T06:53:39.045Z,13.64
2022-09-29T06:58:41.065Z,13.87
2022-09-29T07:03:42.979Z,14.04
2022-09-29T07:08:44.814Z,14.14
2022-09-29T07:13:47.940Z,14.26
2022-09-29T07:18:51.946Z,14.33
2022-09-29T07:23:53.804Z,14.45
2022-09-29T07:28:55.573Z,14.68
2022-09-29T07:33:57.564Z,14.90
2022-09-29T07:38:59.729Z,15.12
2022-09-29T07:44:02.149Z,15.38
2022-09-29T07:49:04.155Z,15.69
2022-09-29T07:54:06.289Z,15.98
2022-09-29T07:59:10.833Z,16.13
2022-09-29T08:04:12.647Z,16.15
2022-09-29T08:09:15.225Z,16.21
2022-09-29T08:14:17.006Z,16.41
2022-09-29T08:19:18.721Z,16.63
2022-09-29T08:24:20.892Z,16.89
2022-09-29T08:29:22.712Z,16.92
2022-09-29T08:34:46.160Z,17.08
2022-09-29T08:39:56.866Z,17.47
2022-09-29T08:45:13.943Z,18.10
2022-09-29T08:50:40.555Z,18.78
2022-09-29T08:55:48.791Z,19.33
2022-09-29T09:01:06.901Z,19.49
2022-09-29T09:06:40.295Z,19.59
2022-09-29T09:12:00.874Z,19.70
2022-09-29T09:17:37.155Z,19.58
2022-09-29T09:22:57.791Z,19.53
2022-09-29T09:28:17.110Z,19.17
2022-09-29T09:33:44.016Z,19.28
2022-09-29T09:38:59.533Z,19.63
2022-09-29T09:44:28.099Z,20.03
2022-09-29T09:49:36.432Z,20.35
2022-09-29T09:55:04.603Z,20.42
2022-09-29T10:00:11.043Z,20.46
2022-09-29T10:05:19.283Z,20.33
2022-09-29T10:10:24.317Z,20.17
2022-09-29T10:15:31.781Z,20.48
2022-09-29T10:20:37.224Z,21.13
2022-09-29T10:25:39.153Z,21.69
2022-09-29T10:30:41.273Z,22.08
2022-09-29T10:35:46.886Z,21.97
2022-09-29T10:40:57.529Z,21.59
2022-09-29T10:45:59.834Z,21.07
2022-09-29T10:51:05.041Z,20.36
2022-09-29T10:56:21.141Z,19.83
2022-09-29T11:01:28.431Z,19.44
2022-09-29T11:06:43.666Z,19.44
2022-09-29T11:11:48.961Z,19.54
2022-09-29T11:17:02.055Z,19.27
2022-09-29T11:22:37.082Z,18.94
2022-09-29T11:28:00.710Z,18.54
2022-09-29T11:33:08.353Z,17.83
2022-09-29T11:38:31.840Z,17.35
2022-09-29T11:43:48.006Z,16.89
2022-09-29T11:49:07.772Z,16.77
2022-09-29T11:54:28.454Z,16.86
2022-09-29T11:59:35.965Z,16.92
2022-09-29T12:04:55.434Z,16.98
2022-09-29T12:10:25.979Z,16.78
2022-09-29T12:15:40.131Z,16.84
2022-09-29T12:20:47.375Z,16.91
2022-09-29T12:25:58.438Z,16.92
2022-09-29T12:31:12.332Z,17.14
2022-09-29T12:36:45.701Z,17.33
2022-09-29T12:42:09.156Z,17.58
2022-09-29T12:47:19.995Z,17.61
2022-09-29T12:52:36.161Z,17.52
2022-09-29T12:58:00.531Z,17.46
2022-09-29T13:03:24.756Z,17.23
2022-09-29T13:08:57.105Z,17.17
2022-09-29T13:25:21.856Z,17.93
2022-09-29T13:30:36.434Z,18.19
2022-09-29T13:35:48.113Z,18.11
2022-09-29T13:41:37.554Z,18.19
2022-09-29T13:46:40.635Z,18.27
2022-09-29T13:51:55.655Z,18.46
2022-09-29T13:57:12.780Z,18.65
2022-09-29T14:02:47.947Z,18.98
2022-09-29T14:07:58.700Z,19.51
2022-09-29T14:13:20.600Z,20.05
2022-09-29T14:18:37.096Z,20.31
2022-09-29T14:23:45.777Z,20.25
2022-09-29T14:28:47.686Z,20.08
2022-09-29T14:33:53.351Z,20.28
2022-09-29T14:39:24.531Z,20.71
2022-09-29T14:44:27.435Z,21.23
2022-09-29T14:49:56.750Z,21.17
2022-09-29T14:55:12.330Z,20.68
2022-09-29T15:00:21.150Z,19.69
2022-09-29T15:05:34.828Z,18.49
2022-09-29T15:10:41.496Z,17.65
2022-09-29T15:15:48.128Z,17.12
2022-09-29T15:21:12.508Z,16.58
2022-09-29T15:26:15.441Z,16.04
2022-09-29T15:31:27.304Z,15.64
2022-09-29T15:36:35.546Z,15.29
2022-09-29T15:41:37.301Z,15.17
2022-09-29T15:46:48.388Z,15.26
2022-09-29T15:52:05.906Z,15.47
2022-09-29T15:57:43.753Z,15.58
2022-09-29T16:02:45.587Z,15.49
2022-09-29T16:07:52.761Z,15.32
2022-09-29T16:12:58.010Z,15.23
2022-09-29T16:18:14.200Z,14.88
2022-09-29T16:48:49.332Z,12.52
2022-09-29T16:53:51.719Z,12.36
2022-09-29T16:59:12.978Z,12.13
2022-09-29T17:04:15.290Z,11.90
2022-09-29T17:09:21.159Z,11.68
2022-09-29T17:14:25.277Z,11.46
2022-09-29T17:19:27.156Z,11.29
2022-09-29T17:24:30.477Z,11.14
2022-09-29T17:29:32.809Z,11.00
2022-09-29T17:34:35.842Z,10.93
2022-09-29T17:39:58.214Z,10.82
2022-09-29T17:45:08.283Z,10.74
2022-09-29T17:50:31.254Z,10.66
2022-09-29T17:55:34.601Z,10.51
2022-09-29T18:00:39.372Z,10.34
2022-09-29T18:05:43.434Z,10.21
2022-09-29T18:11:08.258Z,10.11
2022-09-29T18:16:24.007Z,10.00
2022-09-29T18:21:26.759Z,9.89
2022-09-29T18:26:28.842Z,9.78
2022-09-29T18:31:41.628Z,9.70
2022-09-29T18:36:47.090Z,9.63
2022-09-29T18:41:48.802Z,9.56
2022-09-29T18:46:50.703Z,9.52
2022-09-29T18:51:52.970Z,9.50
2022-09-29T18:56:55.004Z,9.45
2022-09-29T19:01:57.769Z,9.37
2022-09-29T19:06:59.728Z,9.24
2022-09-29T19:12:08.175Z,9.14
2022-09-29T19:17:11.556Z,9.07
2022-09-29T19:22:14.875Z,9.00
2022-09-29T19:27:17.852Z,8.93
2022-09-29T19:32:21.449Z,8.88
2022-09-29T19:37:24.196Z,8.83
2022-09-29T19:42:33.149Z,8.82
2022-09-29T19:47:45.570Z,8.83
2022-09-29T19:52:47.429Z,8.82
2022-09-29T19:57:49.902Z,8.86
2022-09-29T20:02:52.894Z,8.88
2022-09-29T20:07:55.166Z,8.85
2022-09-29T20:12:57.278Z,8.79
2022-09-29T20:17:59.114Z,8.76
2022-09-29T20:23:02.166Z,8.72
2022-09-29T20:28:08.767Z,8.70
2022-09-29T20:33:12.432Z,8.66
2022-09-29T20:38:14.170Z,8.63
2022-09-29T20:43:16.077Z,8.58
2022-09-29T20:48:17.999Z,8.57
2022-09-29T20:53:19.727Z,8.62
2022-09-29T20:58:21.578Z,8.71
2022-09-29T21:03:23.741Z,8.79
2022-09-29T21:08:27.735Z,8.86
2022-09-29T21:13:30.681Z,8.90
2022-09-29T21:18:41.204Z,8.88
2022-09-29T21:23:43.267Z,8.82
2022-09-29T21:28:53.445Z,8.76
2022-09-29T21:33:58.681Z,8.65
2022-09-29T21:39:03.890Z,8.56
2022-09-29T21:44:14.218Z,8.45
2022-09-29T21:49:16.706Z,8.34
2022-09-29T21:54:25.269Z,8.24
2022-09-29T21:59:27.356Z,8.16
2022-09-29T22:04:29.295Z,8.14
2022-09-29T22:09:31.116Z,8.14
2022-09-29T22:14:32.970Z,8.15
2022-09-29T22:19:35.129Z,8.18
2022-09-29T22:24:37.360Z,8.20
2022-09-29T22:29:39.049Z,8.21
2022-09-29T22:34:40.819Z,8.23
2022-09-29T22:39:42.585Z,8.25
2022-09-29T22:44:44.469Z,8.31
2022-09-29T22:49:46.657Z,8.35
2022-09-29T22:54:48.433Z,8.35
2022-09-29T22:59:50.769Z,8.31
2022-09-29T23:04:52.560Z,8.25
2022-09-29T23:09:56.923Z,8.22
2022-09-29T23:14:58.635Z,8.23
2022-09-29T23:20:00.578Z,8.27
2022-09-29T23:25:04.009Z,8.32
2022-09-29T23:30:06.405Z,8.35
2022-09-29T23:35:09.046Z,8.35
2022-09-29T23:40:11.026Z,8.38
2022-09-29T23:45:12.964Z,8.45
2022-09-29T23:50:17.360Z,8.49
2022-09-29T23:55:19.230Z,8.52
